Time;durP1;ratioP1;P1;durP2;ratioP2;P2;SDS_P1;SDS_P2;PMS_P1;PMS_P2;Temp;Humidity;BMP_temperature;BMP_pressure;BME280_temperature;BME280_humidity;BME280_pressure;Samples;Min_cycle;Max_cycle;Signal;HPM_P1;HPM_P2
2023/04/13 00:00:28;;;;;;;;;;;;;;;;;;5053754;28;19995;-71
2023/04/13 00:02:54;;;;;;;;;;;;;;;;;;5053729;28;19998;-72
2023/04/13 00:05:20;;;;;;;;;;;;;;;;;;5053732;28;19950;-70
2023/04/13 00:07:47;;;;;;;;;;;;;;;;;;5053704;28;19959;-70
2023/04/13 00:10:14;;;;;;;;;;;;;;;;;;5053659;28;20433;-69
2023/04/13 00:12:41;;;;;;;;;;;;;;;;;;5054200;28;20351;-70
2023/04/13 00:15:07;;;;;;;;;;;;;;;;;;5053563;28;19952;-69
2023/04/13 00:17:33;;;;;;;;;;;;;;;;;;5053914;28;19956;-71
2023/04/13 00:19:59;;;;;;;;;;;;;;;;;;5053497;28;20432;-72
2023/04/13 00:22:25;;;;;;;;;;;;;;;;;;5053681;28;19987;-72
2023/04/13 00:24:54;;;;;;;;;;;;;;;;;;5053548;28;19952;-73
2023/04/13 00:27:20;;;;;;;;;;;;;;;;;;5053495;28;19955;-72
2023/04/13 00:29:46;;;;;;;;;;;;;;;;;;5053423;28;20070;-71
2023/04/13 00:32:12;;;;;;;;;;;;;;;;;;5053739;28;20297;-71
2023/04/13 00:34:37;;;;;;;;;;;;;;;;;;5053393;28;19959;-71
2023/04/13 00:37:05;;;;;;;;;;;;;;;;;;5053986;28;19951;-70
2023/04/13 00:39:31;;;;;;;;;;;;;;;;;;5056849;28;19970;-71
2023/04/13 00:41:57;;;;;;;;;;;;;;;;;;5057705;28;20002;-72
2023/04/13 00:44:23;;;;;;;;;;;;;;;;;;5057419;28;20470;-71
2023/04/13 00:46:49;;;;;;;;;;;;;;;;;;5057637;28;19956;-72
2023/04/13 00:49:15;;;;;;;;;;;;;;;;;;5057261;28;20006;-70
2023/04/13 00:51:43;;;;;;;;;;;;;;;;;;5057236;28;19955;-70
2023/04/13 00:54:09;;;;;;;;;;;;;;;;;;5057207;28;20370;-70
2023/04/13 00:56:36;;;;;;;;;;;;;;;;;;5057724;28;19998;-70
2023/04/13 00:59:02;;;;;;;;;;;;;;;;;;5057355;28;20082;-69
2023/04/13 01:01:29;;;;;;;;;;;;;;;;;;5057395;28;20468;-71
2023/04/13 01:03:55;;;;;;;;;;;;;;;;;;5057347;28;20392;-71
2023/04/13 01:06:21;;;;;;;;;;;;;;;;;;5057292;28;19958;-71
2023/04/13 01:08:47;;;;;;;;;;;;;;;;;;5057220;28;19952;-70
2023/04/13 01:11:14;;;;;;;;;;;;;;;;;;5057467;28;19950;-70
2023/04/13 01:13:40;;;;;;;;;;;;;;;;;;5056831;28;20412;-71
2023/04/13 01:16:05;;;;;;;;;;;;;;;;;;5057378;28;20046;-72
2023/04/13 01:18:32;;;;;;;;;;;;;;;;;;5056972;28;19952;-71
2023/04/13 01:20:58;;;;;;;;;;;;;;;;;;5056787;28;20030;-70
2023/04/13 01:23:24;;;;;;;;;;;;;;;;;;5057020;28;19958;-71
2023/04/13 01:25:50;;;;;;;;;;;;;;;;;;5056646;28;19954;-70
2023/04/13 01:28:16;;;;;;;;;;;;;;;;;;5056606;28;19952;-72
2023/04/13 01:30:43;;;;;;;;;;;;;;;;;;5056539;28;19968;-71
2023/04/13 01:33:09;;;;;;;;;;;;;;;;;;5056502;28;20408;-71
2023/04/13 01:35:35;;;;;;;;;;;;;;;;;;5056477;28;19966;-72
2023/04/13 01:38:01;;;;;;;;;;;;;;;;;;5056558;28;19959;-70
2023/04/13 01:40:27;;;;;;;;;;;;;;;;;;5056585;28;20021;-71
2023/04/13 01:42:52;;;;;;;;;;;;;;;;;;5056350;28;20034;-70
2023/04/13 01:45:18;;;;;;;;;;;;;;;;;;5056299;28;20095;-72
2023/04/13 01:47:45;;;;;;;;;;;;;;;;;;5056578;28;19952;-72
2023/04/13 01:50:12;;;;;;;;;;;;;;;;;;5056111;28;19952;-72
2023/04/13 01:52:38;;;;;;;;;;;;;;;;;;5056422;28;20396;-71
2023/04/13 01:55:04;;;;;;;;;;;;;;;;;;5056391;28;19975;-71
2023/04/13 01:57:30;;;;;;;;;;;;;;;;;;5056038;28;20404;-70
2023/04/13 01:59:56;;;;;;;;;;;;;;;;;;5055946;28;19971;-71
2023/04/13 02:02:22;;;;;;;;;;;;;;;;;;5056240;28;20289;-70
2023/04/13 02:04:49;;;;;;;;;;;;;;;;;;5055893;28;19958;-72
2023/04/13 02:07:15;;;;;;;;;;;;;;;;;;5055839;28;19952;-71
2023/04/13 02:09:41;;;;;;;;;;;;;;;;;;5055849;28;20404;-69
2023/04/13 02:12:07;;;;;;;;;;;;;;;;;;5056076;28;20042;-70
2023/04/13 02:14:33;;;;;;;;;;;;;;;;;;5055719;28;20014;-70
2023/04/13 02:16:59;;;;;;;;;;;;;;;;;;5055715;28;19963;-72
2023/04/13 02:19:24;;;;;;;;;;;;;;;;;;5055576;28;19978;-72
2023/04/13 02:21:52;;;;;;;;;;;;;;;;;;5055424;28;20013;-71
2023/04/13 02:24:18;;;;;;;;;;;;;;;;;;5055830;28;20039;-72
2023/04/13 02:26:43;;;;;;;;;;;;;;;;;;5055455;28;19999;-72
2023/04/13 02:29:09;;;;;;;;;;;;;;;;;;5055359;28;20073;-72
2023/04/13 02:31:35;;;;;;;;;;;;;;;;;;5055410;28;19952;-71
2023/04/13 02:34:02;;;;;;;;;;;;;;;;;;5055613;28;19952;-70
2023/04/13 02:36:29;;;;;;;;;;;;;;;;;;5055284;28;20002;-71
2023/04/13 02:38:55;;;;;;;;;;;;;;;;;;5055421;28;20440;-70
2023/04/13 02:41:21;;;;;;;;;;;;;;;;;;5055237;28;19959;-71
2023/04/13 02:43:48;;;;;;;;;;;;;;;;;;5055158;28;19951;-69
2023/04/13 02:46:14;;;;;;;;;;;;;;;;;;5055388;28;19959;-70
2023/04/13 02:48:40;;;;;;;;;;;;;;;;;;5055103;28;19952;-70
2023/04/13 02:51:06;;;;;;;;;;;;;;;;;;5055597;28;19952;-69
2023/04/13 02:53:32;;;;;;;;;;;;;;;;;;5055266;28;20001;-71
2023/04/13 02:55:58;;;;;;;;;;;;;;;;;;5055010;28;20045;-70
2023/04/13 02:58:24;;;;;;;;;;;;;;;;;;5055470;28;19958;-70
2023/04/13 03:00:50;;;;;;;;;;;;;;;;;;5054514;28;19975;-72
2023/04/13 03:03:16;;;;;;;;;;;;;;;;;;5054826;28;20428;-69
2023/04/13 03:05:42;;;;;;;;;;;;;;;;;;5054758;28;20423;-72
2023/04/13 03:08:09;;;;;;;;;;;;;;;;;;5054707;28;19952;-69
2023/04/13 03:10:36;;;;;;;;;;;;;;;;;;5054915;28;20477;-71
2023/04/13 03:13:02;;;;;;;;;;;;;;;;;;5054642;28;19956;-71
2023/04/13 03:15:29;;;;;;;;;;;;;;;;;;5054605;28;19952;-69
2023/04/13 03:17:58;;;;;;;;;;;;;;;;;;5054567;28;19952;-70
2023/04/13 03:20:24;;;;;;;;;;;;;;;;;;5054408;28;19971;-72
2023/04/13 03:22:52;;;;;;;;;;;;;;;;;;5054039;28;20037;-70
2023/04/13 03:25:18;;;;;;;;;;;;;;;;;;5054384;28;20422;-70
2023/04/13 03:27:44;;;;;;;;;;;;;;;;;;5054330;28;19994;-72
2023/04/13 03:30:10;;;;;;;;;;;;;;;;;;5054341;28;19968;-70
2023/04/13 03:32:36;;;;;;;;;;;;;;;;;;5054839;28;19951;-71
2023/04/13 03:35:01;;;;;;;;;;;;;;;;;;5054202;28;20416;-70
2023/04/13 03:37:28;;;;;;;;;;;;;;;;;;5054162;28;19952;-72
2023/04/13 03:39:54;;;;;;;;;;;;;;;;;;5054059;28;19971;-72
2023/04/13 03:42:20;;;;;;;;;;;;;;;;;;5054429;28;20424;-69
2023/04/13 03:44:46;;;;;;;;;;;;;;;;;;5054330;28;19952;-71
2023/04/13 03:47:12;;;;;;;;;;;;;;;;;;5054088;28;19951;-71
2023/04/13 03:49:38;;;;;;;;;;;;;;;;;;5054027;28;20475;-72
2023/04/13 03:52:04;;;;;;;;;;;;;;;;;;5053943;28;19952;-71
2023/04/13 03:54:30;;;;;;;;;;;;;;;;;;5054204;28;19951;-70
2023/04/13 03:56:57;;;;;;;;;;;;;;;;;;5054211;28;20478;-69
2023/04/13 03:59:23;;;;;;;;;;;;;;;;;;5054335;28;20018;-70
2023/04/13 04:01:49;;;;;;;;;;;;;;;;;;5054117;28;19955;-71
2023/04/13 04:04:15;;;;;;;;;;;;;;;;;;5054361;28;20022;-71
2023/04/13 04:06:41;;;;;;;;;;;;;;;;;;5053713;28;20062;-70
2023/04/13 04:09:08;;;;;;;;;;;;;;;;;;5053722;28;19951;-69
2023/04/13 04:11:34;;;;;;;;;;;;;;;;;;5053959;28;20017;-70
2023/04/13 04:14:00;;;;;;;;;;;;;;;;;;5052747;28;20404;-71
2023/04/13 04:16:26;;;;;;;;;;;;;;;;;;5053924;28;19959;-70
2023/04/13 04:18:51;;;;;;;;;;;;;;;;;;5053528;28;19983;-68
2023/04/13 04:21:20;;;;;;;;;;;;;;;;;;5053393;28;19995;-71
2023/04/13 04:23:46;;;;;;;;;;;;;;;;;;5053543;28;19959;-71
2023/04/13 04:26:13;;;;;;;;;;;;;;;;;;5053781;28;20046;-69
2023/04/13 04:28:39;;;;;;;;;;;;;;;;;;5053482;28;19956;-72
2023/04/13 04:31:05;;;;;;;;;;;;;;;;;;5053426;28;19990;-70
2023/04/13 04:33:31;;;;;;;;;;;;;;;;;;5054003;28;19952;-70
2023/04/13 04:35:57;;;;;;;;;;;;;;;;;;5053478;28;19952;-72
2023/04/13 04:38:23;;;;;;;;;;;;;;;;;;5053996;28;19958;-71
2023/04/13 04:40:49;;;;;;;;;;;;;;;;;;5053254;28;20142;-72
2023/04/13 04:43:15;;;;;;;;;;;;;;;;;;5053412;28;19956;-72
2023/04/13 04:45:42;;;;;;;;;;;;;;;;;;5053367;28;19958;-70
2023/04/13 04:48:08;;;;;;;;;;;;;;;;;;5053918;28;19974;-71
2023/04/13 04:50:36;;;;;;;;;;;;;;;;;;5053280;28;20420;-71
2023/04/13 04:53:02;;;;;;;;;;;;;;;;;;5052035;28;19955;-71
2023/04/13 04:55:28;;;;;;;;;;;;;;;;;;5053263;28;19958;-72
2023/04/13 04:57:54;;;;;;;;;;;;;;;;;;5053231;28;20435;-70
2023/04/13 05:00:20;;;;;;;;;;;;;;;;;;5053434;28;20001;-70
2023/04/13 05:02:48;;;;;;;;;;;;;;;;;;5053195;28;19959;-70
2023/04/13 05:05:14;;;;;;;;;;;;;;;;;;5053508;28;20050;-70
2023/04/13 05:07:40;;;;;;;;;;;;;;;;;;5053166;28;20441;-70
2023/04/13 05:10:06;;;;;;;;;;;;;;;;;;5053158;28;19990;-71
2023/04/13 05:12:32;;;;;;;;;;;;;;;;;;5053147;28;20328;-70
2023/04/13 05:14:58;;;;;;;;;;;;;;;;;;5053351;28;19991;-69
2023/04/13 05:17:24;;;;;;;;;;;;;;;;;;5053366;28;19952;-72
2023/04/13 05:19:50;;;;;;;;;;;;;;;;;;5052936;28;20011;-70
2023/04/13 05:22:16;;;;;;;;;;;;;;;;;;5052941;28;20035;-70
2023/04/13 05:24:42;;;;;;;;;;;;;;;;;;5055215;28;20041;-71
2023/04/13 05:27:08;;;;;;;;;;;;;;;;;;5056926;28;19958;-70
2023/04/13 05:29:34;;;;;;;;;;;;;;;;;;5056576;28;19968;-70
2023/04/13 05:32:00;;;;;;;;;;;;;;;;;;5056631;28;20129;-72
2023/04/13 05:34:26;;;;;;;;;;;;;;;;;;5056528;28;19952;-70
2023/04/13 05:36:56;;;;;;;;;;;;;;;;;;5056449;28;20005;-70
2023/04/13 05:39:23;;;;;;;;;;;;;;;;;;5056843;28;20446;-71
2023/04/13 05:41:49;;;;;;;;;;;;;;;;;;5056355;28;19959;-71
2023/04/13 05:44:15;;;;;;;;;;;;;;;;;;5056828;28;20320;-71
2023/04/13 05:46:41;;;;;;;;;;;;;;;;;;5056497;28;20038;-70
2023/04/13 05:49:07;;;;;;;;;;;;;;;;;;5056229;28;19959;-70
2023/04/13 05:51:33;;;;;;;;;;;;;;;;;;5056440;28;19959;-70
2023/04/13 05:53:59;;;;;;;;;;;;;;;;;;5056128;28;19995;-71
2023/04/13 05:56:25;;;;;;;;;;;;;;;;;;5056109;28;19978;-71
2023/04/13 05:58:51;;;;;;;;;;;;;;;;;;5055945;28;19955;-72
2023/04/13 06:01:18;;;;;;;;;;;;;;;;;;5056323;28;19951;-71
2023/04/13 06:03:45;;;;;;;;;;;;;;;;;;5055932;28;19955;-70
2023/04/13 06:06:11;;;;;;;;;;;;;;;;;;5056387;28;20324;-71
2023/04/13 06:08:37;;;;;;;;;;;;;;;;;;5055833;28;19952;-71
2023/04/13 06:11:03;;;;;;;;;;;;;;;;;;5055589;28;20058;-70
2023/04/13 06:13:29;;;;;;;;;;;;;;;;;;5055729;28;20419;-71
2023/04/13 06:15:55;;;;;;;;;;;;;;;;;;5054432;28;19956;-70
2023/04/13 06:18:21;;;;;;;;;;;;;;;;;;5055665;28;19952;-72
2023/04/13 06:20:47;;;;;;;;;;;;;;;;;;5055609;28;19971;-72
2023/04/13 06:23:14;;;;;;;;;;;;;;;;;;5055896;28;19986;-72
2023/04/13 06:25:40;;;;;;;;;;;;;;;;;;5055508;28;19962;-70
2023/04/13 06:28:06;;;;;;;;;;;;;;;;;;5055515;28;19952;-70
2023/04/13 06:30:32;;;;;;;;;;;;;;;;;;5055379;28;19972;-72
2023/04/13 06:32:58;;;;;;;;;;;;;;;;;;5055655;28;20001;-71
2023/04/13 06:35:24;;;;;;;;;;;;;;;;;;5054447;28;19952;-71
2023/04/13 06:37:50;;;;;;;;;;;;;;;;;;5053961;28;20374;-71
2023/04/13 06:40:16;;;;;;;;;;;;;;;;;;5055199;28;20007;-73
2023/04/13 06:42:42;;;;;;;;;;;;;;;;;;5055223;28;19951;-74
2023/04/13 06:45:08;;;;;;;;;;;;;;;;;;5055206;28;20039;-71
2023/04/13 06:47:34;;;;;;;;;;;;;;;;;;5055164;28;20355;-73
2023/04/13 06:50:00;;;;;;;;;;;;;;;;;;5055028;28;20511;-70
2023/04/13 06:52:26;;;;;;;;;;;;;;;;;;5053286;28;19955;-72
2023/04/13 06:54:52;;;;;;;;;;;;;;;;;;5037870;28;20435;-69
2023/04/13 06:57:18;;;;;;;;;;;;;;;;;;5046650;28;20415;-70
2023/04/13 06:59:44;;;;;;;;;;;;;;;;;;5040812;28;20066;-70
2023/04/13 07:02:10;;;;;;;;;;;;;;;;;;5037271;28;19963;-70
2023/04/13 07:04:36;;;;;;;;;;;;;;;;;;5048018;28;20462;-70
2023/04/13 07:07:02;;;;;;;;;;;;;;;;;;5034879;28;19959;-71
2023/04/13 07:09:28;;;;;;;;;;;;;;;;;;5041850;28;19960;-69
2023/04/13 07:11:54;;;;;;;;;;;;;;;;;;5035005;28;19956;-70
2023/04/13 07:14:20;;;;;;;;;;;;;;;;;;5034195;28;20002;-70
2023/04/13 07:16:46;;;;;;;;;;;;;;;;;;5035680;28;19978;-71
2023/04/13 07:19:12;;;;;;;;;;;;;;;;;;5054450;28;19971;-70
2023/04/13 07:21:38;;;;;;;;;;;;;;;;;;5043720;28;20082;-69
2023/04/13 07:24:04;;;;;;;;;;;;;;;;;;5041778;28;20420;-69
2023/04/13 07:26:30;;;;;;;;;;;;;;;;;;5054392;28;20046;-69
2023/04/13 07:28:56;;;;;;;;;;;;;;;;;;5054750;28;20001;-71
2023/04/13 07:31:22;;;;;;;;;;;;;;;;;;5054354;28;20057;-72
2023/04/13 07:33:48;;;;;;;;;;;;;;;;;;5044273;28;20514;-69
2023/04/13 07:36:14;;;;;;;;;;;;;;;;;;5034427;28;20002;-68
2023/04/13 07:38:40;;;;;;;;;;;;;;;;;;5034452;28;20092;-74
2023/04/13 07:41:06;;;;;;;;;;;;;;;;;;5034181;28;20401;-72
2023/04/13 07:43:34;;;;;;;;;;;;;;;;;;5034161;28;20038;-72
2023/04/13 07:46:00;;;;;;;;;;;;;;;;;;5034115;28;19962;-71
2023/04/13 07:48:26;;;;;;;;;;;;;;;;;;5034217;28;19951;-71
2023/04/13 07:50:52;;;;;;;;;;;;;;;;;;5033500;28;19982;-69
2023/04/13 07:53:18;;;;;;;;;;;;;;;;;;5034568;28;19958;-72
2023/04/13 07:55:44;;;;;;;;;;;;;;;;;;5034289;28;19956;-71
2023/04/13 07:58:10;;;;;;;;;;;;;;;;;;5033623;28;19963;-72
2023/04/13 08:00:35;;;;;;;;;;;;;;;;;;5033189;28;20000;-68
2023/04/13 08:03:01;;;;;;;;;;;;;;;;;;5039495;28;20008;-71
2023/04/13 08:05:27;;;;;;;;;;;;;;;;;;5053994;28;19951;-68
2023/04/13 08:07:53;;;;;;;;;;;;;;;;;;5033125;28;20340;-69
2023/04/13 08:10:19;;;;;;;;;;;;;;;;;;5032886;28;20005;-69
2023/04/13 08:12:45;;;;;;;;;;;;;;;;;;5033769;28;19956;-69
2023/04/13 08:15:11;;;;;;;;;;;;;;;;;;5034538;28;20049;-71
2023/04/13 08:17:37;;;;;;;;;;;;;;;;;;5032016;28;19963;-69
2023/04/13 08:20:06;;;;;;;;;;;;;;;;;;5033623;28;19972;-69
2023/04/13 08:22:32;;;;;;;;;;;;;;;;;;5033269;28;20359;-72
2023/04/13 08:24:58;;;;;;;;;;;;;;;;;;5033633;28;19959;-73
2023/04/13 08:27:24;;;;;;;;;;;;;;;;;;5033912;28;19963;-72
2023/04/13 08:29:50;;;;;;;;;;;;;;;;;;5033608;28;19968;-73
2023/04/13 08:32:16;;;;;;;;;;;;;;;;;;5051024;28;19964;-74
2023/04/13 08:34:42;;;;;;;;;;;;;;;;;;5052075;28;20002;-72
2023/04/13 08:37:08;;;;;;;;;;;;;;;;;;5034019;28;20401;-76
2023/04/13 08:39:34;;;;;;;;;;;;;;;;;;5032811;28;20062;-72
2023/04/13 08:42:00;;;;;;;;;;;;;;;;;;5033443;28;20324;-71
2023/04/13 08:44:26;;;;;;;;;;;;;;;;;;5047503;28;20006;-72
2023/04/13 08:46:52;;;;;;;;;;;;;;;;;;5051813;28;19952;-73
2023/04/13 08:49:18;;;;;;;;;;;;;;;;;;5053288;28;19952;-72
2023/04/13 08:51:46;;;;;;;;;;;;;;;;;;5052225;28;19966;-70
2023/04/13 08:54:13;;;;;;;;;;;;;;;;;;5042145;28;19960;-70
2023/04/13 08:56:39;;;;;;;;;;;;;;;;;;5050250;28;19995;-73
2023/04/13 08:59:06;;;;;;;;;;;;;;;;;;5054760;28;20010;-72
2023/04/13 09:01:33;;;;;;;;;;;;;;;;;;5044834;28;19963;-69
2023/04/13 09:03:59;;;;;;;;;;;;;;;;;;5050766;28;20098;-68
2023/04/13 09:06:25;;;;;;;;;;;;;;;;;;5037473;28;19956;-70
2023/04/13 09:08:52;;;;;;;;;;;;;;;;;;5041159;28;19960;-68
2023/04/13 09:11:18;;;;;;;;;;;;;;;;;;5042202;28;19956;-69
2023/04/13 09:13:44;;;;;;;;;;;;;;;;;;5044568;28;19962;-69
2023/04/13 09:16:11;;;;;;;;;;;;;;;;;;5036995;28;20348;-69
2023/04/13 09:18:37;;;;;;;;;;;;;;;;;;5044283;28;20313;-71
2023/04/13 09:21:03;;;;;;;;;;;;;;;;;;5045614;28;19994;-69
2023/04/13 09:23:29;;;;;;;;;;;;;;;;;;5053546;28;20041;-70
2023/04/13 09:25:55;;;;;;;;;;;;;;;;;;5036232;28;19991;-68
2023/04/13 09:28:21;;;;;;;;;;;;;;;;;;5036716;28;20002;-69
2023/04/13 09:30:47;;;;;;;;;;;;;;;;;;5037189;28;19968;-69
2023/04/13 09:33:12;;;;;;;;;;;;;;;;;;5036667;28;20301;-70
2023/04/13 09:35:39;;;;;;;;;;;;;;;;;;5036701;28;19953;-69
2023/04/13 09:38:06;;;;;;;;;;;;;;;;;;5037222;28;20442;-68
2023/04/13 09:40:32;;;;;;;;;;;;;;;;;;5036614;28;20066;-73
2023/04/13 09:42:58;;;;;;;;;;;;;;;;;;5036118;28;20042;-71
2023/04/13 09:45:23;;;;;;;;;;;;;;;;;;5035738;28;19952;-71
2023/04/13 09:47:51;;;;;;;;;;;;;;;;;;5035788;28;19956;-73
2023/04/13 09:50:17;;;;;;;;;;;;;;;;;;5035716;28;20472;-72
2023/04/13 09:52:44;;;;;;;;;;;;;;;;;;5035646;28;20047;-72
2023/04/13 09:55:10;;;;;;;;;;;;;;;;;;5035559;28;20340;-72
2023/04/13 09:57:35;;;;;;;;;;;;;;;;;;5036081;28;19952;-72
2023/04/13 10:00:05;;;;;;;;;;;;;;;;;;5035540;28;19976;-74
2023/04/13 10:02:31;;;;;;;;;;;;;;;;;;5034706;28;20037;-75
2023/04/13 10:04:57;;;;;;;;;;;;;;;;;;5035376;28;19995;-73
2023/04/13 10:07:28;;;;;;;;;;;;;;;;;;5036403;28;19997;-72
2023/04/13 10:09:54;;;;;;;;;;;;;;;;;;5051470;28;19959;-77
2023/04/13 10:12:20;;;;;;;;;;;;;;;;;;5039652;28;20350;-75
2023/04/13 10:14:47;;;;;;;;;;;;;;;;;;5040579;28;19960;-76
2023/04/13 10:17:13;;;;;;;;;;;;;;;;;;5036896;28;20004;-72
2023/04/13 10:19:41;;;;;;;;;;;;;;;;;;5035086;28;20022;-72
2023/04/13 10:22:07;;;;;;;;;;;;;;;;;;5034833;28;19994;-68
2023/04/13 10:24:33;;;;;;;;;;;;;;;;;;5034721;28;20030;-71
2023/04/13 10:27:00;;;;;;;;;;;;;;;;;;5034879;28;20459;-71
2023/04/13 10:29:26;;;;;;;;;;;;;;;;;;5034818;28;19972;-70
2023/04/13 10:31:52;;;;;;;;;;;;;;;;;;5035335;28;19987;-76
2023/04/13 10:34:18;;;;;;;;;;;;;;;;;;5035262;28;20428;-75
2023/04/13 10:36:46;;;;;;;;;;;;;;;;;;5035139;28;20290;-73
2023/04/13 10:39:11;;;;;;;;;;;;;;;;;;5035276;28;19980;-73
2023/04/13 10:41:37;;;;;;;;;;;;;;;;;;5035360;28;19956;-73
2023/04/13 10:44:03;;;;;;;;;;;;;;;;;;5035243;28;20060;-75
2023/04/13 10:46:29;;;;;;;;;;;;;;;;;;5035508;28;19967;-74
2023/04/13 10:48:58;;;;;;;;;;;;;;;;;;5035120;28;20336;-74
2023/04/13 10:51:26;;;;;;;;;;;;;;;;;;5035164;28;19956;-73
2023/04/13 10:53:52;;;;;;;;;;;;;;;;;;5035368;28;19956;-71
2023/04/13 10:56:18;;;;;;;;;;;;;;;;;;5035072;28;19956;-73
2023/04/13 10:58:44;;;;;;;;;;;;;;;;;;5035030;28;20318;-74
2023/04/13 11:01:10;;;;;;;;;;;;;;;;;;5035199;28;20340;-72
2023/04/13 11:03:36;;;;;;;;;;;;;;;;;;5034909;28;19956;-73
2023/04/13 11:06:02;;;;;;;;;;;;;;;;;;5034873;28;20038;-75
2023/04/13 11:08:29;;;;;;;;;;;;;;;;;;5034792;28;20011;-72
2023/04/13 11:10:55;;;;;;;;;;;;;;;;;;5035320;28;20052;-72
2023/04/13 11:13:21;;;;;;;;;;;;;;;;;;5034989;28;19996;-73
2023/04/13 11:15:47;;;;;;;;;;;;;;;;;;5034675;28;20011;-73
2023/04/13 11:18:12;;;;;;;;;;;;;;;;;;5034626;28;19957;-74
2023/04/13 11:20:38;;;;;;;;;;;;;;;;;;5034678;28;19975;-72
2023/04/13 11:23:04;;;;;;;;;;;;;;;;;;5034178;28;19967;-72
2023/04/13 11:25:31;;;;;;;;;;;;;;;;;;5034495;28;19992;-74
2023/04/13 11:27:57;;;;;;;;;;;;;;;;;;5035030;28;20001;-74
2023/04/13 11:30:23;;;;;;;;;;;;;;;;;;5034435;28;20060;-72
2023/04/13 11:32:49;;;;;;;;;;;;;;;;;;5033106;28;20047;-73
2023/04/13 11:35:17;;;;;;;;;;;;;;;;;;5034628;28;19957;-72
2023/04/13 11:37:43;;;;;;;;;;;;;;;;;;5034243;28;19963;-74
2023/04/13 11:40:11;;;;;;;;;;;;;;;;;;5034191;28;19976;-73
2023/04/13 11:42:37;;;;;;;;;;;;;;;;;;5034775;28;19957;-73
2023/04/13 11:45:03;;;;;;;;;;;;;;;;;;5034120;28;19963;-73
2023/04/13 11:47:29;;;;;;;;;;;;;;;;;;5034701;28;20317;-73
2023/04/13 11:49:55;;;;;;;;;;;;;;;;;;5034067;28;19956;-72
2023/04/13 11:52:21;;;;;;;;;;;;;;;;;;5032691;28;20340;-76
2023/04/13 11:54:47;;;;;;;;;;;;;;;;;;5033763;28;20008;-73
2023/04/13 11:57:14;;;;;;;;;;;;;;;;;;5034260;28;19956;-72
2023/04/13 11:59:40;;;;;;;;;;;;;;;;;;5033852;28;19987;-73
2023/04/13 12:02:07;;;;;;;;;;;;;;;;;;5033909;28;19964;-71
2023/04/13 12:04:33;;;;;;;;;;;;;;;;;;5034225;28;20360;-74
2023/04/13 12:06:59;;;;;;;;;;;;;;;;;;5033857;28;19964;-73
2023/04/13 12:09:25;;;;;;;;;;;;;;;;;;5033871;28;20391;-73
2023/04/13 12:11:52;;;;;;;;;;;;;;;;;;5034354;28;19992;-72
2023/04/13 12:14:18;;;;;;;;;;;;;;;;;;5033781;28;19963;-73
2023/04/13 12:16:44;;;;;;;;;;;;;;;;;;5033994;28;20043;-73
2023/04/13 12:19:10;;;;;;;;;;;;;;;;;;5033607;28;20098;-74
2023/04/13 12:21:36;;;;;;;;;;;;;;;;;;5033439;28;20009;-75
2023/04/13 12:24:02;;;;;;;;;;;;;;;;;;5033874;28;20319;-75
2023/04/13 12:26:28;;;;;;;;;;;;;;;;;;5034162;28;20049;-72
2023/04/13 12:28:55;;;;;;;;;;;;;;;;;;5033579;28;20039;-76
2023/04/13 12:31:21;;;;;;;;;;;;;;;;;;5034235;28;19949;-74
2023/04/13 12:33:47;;;;;;;;;;;;;;;;;;5034231;28;19945;-73
2023/04/13 12:36:13;;;;;;;;;;;;;;;;;;5038223;28;19981;-71
2023/04/13 12:38:39;;;;;;;;;;;;;;;;;;5037619;28;20008;-72
2023/04/13 12:41:05;;;;;;;;;;;;;;;;;;5037556;28;19984;-74
2023/04/13 12:43:31;;;;;;;;;;;;;;;;;;5037549;28;19964;-74
2023/04/13 12:45:57;;;;;;;;;;;;;;;;;;5037534;28;20340;-74
2023/04/13 12:48:23;;;;;;;;;;;;;;;;;;5037504;28;19957;-74
2023/04/13 12:50:49;;;;;;;;;;;;;;;;;;5037666;28;20025;-72
2023/04/13 12:53:15;;;;;;;;;;;;;;;;;;5037669;28;20328;-74
2023/04/13 12:55:41;;;;;;;;;;;;;;;;;;5037327;28;19956;-72
2023/04/13 12:58:07;;;;;;;;;;;;;;;;;;5037549;28;20015;-74
2023/04/13 13:00:33;;;;;;;;;;;;;;;;;;5037138;28;20046;-73
2023/04/13 13:02:58;;;;;;;;;;;;;;;;;;5037207;28;19957;-75
2023/04/13 13:05:24;;;;;;;;;;;;;;;;;;5037635;28;20393;-72
2023/04/13 13:07:50;;;;;;;;;;;;;;;;;;5037318;28;19960;-72
2023/04/13 13:10:16;;;;;;;;;;;;;;;;;;5037084;28;19964;-74
2023/04/13 13:12:42;;;;;;;;;;;;;;;;;;5036931;28;19956;-73
2023/04/13 13:15:09;;;;;;;;;;;;;;;;;;5038930;28;20407;-69
2023/04/13 13:17:35;;;;;;;;;;;;;;;;;;5037135;28;19960;-72
2023/04/13 13:20:01;;;;;;;;;;;;;;;;;;5038808;28;19983;-73
2023/04/13 13:22:28;;;;;;;;;;;;;;;;;;5034410;28;19995;-68
2023/04/13 13:24:53;;;;;;;;;;;;;;;;;;5035699;28;20018;-71
2023/04/13 13:27:19;;;;;;;;;;;;;;;;;;5054494;28;19968;-68
2023/04/13 13:29:45;;;;;;;;;;;;;;;;;;5050005;28;20046;-70
2023/04/13 13:32:11;;;;;;;;;;;;;;;;;;5036243;28;19967;-70
2023/04/13 13:34:37;;;;;;;;;;;;;;;;;;5036534;28;19964;-69
2023/04/13 13:37:04;;;;;;;;;;;;;;;;;;5035746;28;19960;-70
2023/04/13 13:39:31;;;;;;;;;;;;;;;;;;5035956;28;20029;-68
2023/04/13 13:41:57;;;;;;;;;;;;;;;;;;5036037;28;19956;-69
2023/04/13 13:44:23;;;;;;;;;;;;;;;;;;5035727;28;19957;-70
2023/04/13 13:46:49;;;;;;;;;;;;;;;;;;5036048;28;19956;-69
2023/04/13 13:49:15;;;;;;;;;;;;;;;;;;5036401;28;20387;-68
2023/04/13 13:51:41;;;;;;;;;;;;;;;;;;5036563;28;19964;-70
2023/04/13 13:54:07;;;;;;;;;;;;;;;;;;5036244;28;19956;-68
2023/04/13 13:56:33;;;;;;;;;;;;;;;;;;5036750;28;20290;-68
2023/04/13 13:58:59;;;;;;;;;;;;;;;;;;5036372;28;19957;-69
2023/04/13 14:01:25;;;;;;;;;;;;;;;;;;5036433;28;20464;-68
2023/04/13 14:03:51;;;;;;;;;;;;;;;;;;5036067;28;19956;-69
2023/04/13 14:06:16;;;;;;;;;;;;;;;;;;5036051;28;19956;-69
2023/04/13 14:08:42;;;;;;;;;;;;;;;;;;5036307;28;19961;-71
2023/04/13 14:11:08;;;;;;;;;;;;;;;;;;5035887;28;20429;-68
2023/04/13 14:13:34;;;;;;;;;;;;;;;;;;5035906;28;19957;-70
2023/04/13 14:16:00;;;;;;;;;;;;;;;;;;5035875;28;19961;-69
2023/04/13 14:18:26;;;;;;;;;;;;;;;;;;5035881;28;20006;-67
2023/04/13 14:20:52;;;;;;;;;;;;;;;;;;5036023;28;20447;-70
2023/04/13 14:23:18;;;;;;;;;;;;;;;;;;5036068;28;19960;-70
2023/04/13 14:25:44;;;;;;;;;;;;;;;;;;5035806;28;20007;-69
2023/04/13 14:28:10;;;;;;;;;;;;;;;;;;5036110;28;19960;-70
2023/04/13 14:30:36;;;;;;;;;;;;;;;;;;5035531;28;20352;-70
2023/04/13 14:33:02;;;;;;;;;;;;;;;;;;5036109;28;19956;-69
2023/04/13 14:35:29;;;;;;;;;;;;;;;;;;5035798;28;19963;-70
2023/04/13 14:37:55;;;;;;;;;;;;;;;;;;5036103;28;19956;-71
2023/04/13 14:40:22;;;;;;;;;;;;;;;;;;5035371;28;19983;-71
2023/04/13 14:42:49;;;;;;;;;;;;;;;;;;5036262;28;20000;-68
2023/04/13 14:45:15;;;;;;;;;;;;;;;;;;5051486;28;20047;-71
2023/04/13 14:47:41;;;;;;;;;;;;;;;;;;5054553;28;20388;-68
2023/04/13 14:50:08;;;;;;;;;;;;;;;;;;5055257;28;19963;-70
2023/04/13 14:52:34;;;;;;;;;;;;;;;;;;5055100;28;20432;-71
2023/04/13 14:55:00;;;;;;;;;;;;;;;;;;5055039;28;19959;-70
2023/04/13 14:57:26;;;;;;;;;;;;;;;;;;5054510;28;20038;-69
2023/04/13 14:59:52;;;;;;;;;;;;;;;;;;5054848;28;20074;-70
2023/04/13 15:02:18;;;;;;;;;;;;;;;;;;5054897;28;19960;-70
2023/04/13 15:04:43;;;;;;;;;;;;;;;;;;5055141;28;19955;-68
2023/04/13 15:07:09;;;;;;;;;;;;;;;;;;5054792;28;19983;-70
2023/04/13 15:09:36;;;;;;;;;;;;;;;;;;5055040;28;19946;-71
2023/04/13 15:12:03;;;;;;;;;;;;;;;;;;5054728;28;19945;-70
2023/04/13 15:14:29;;;;;;;;;;;;;;;;;;5054678;28;20079;-69
2023/04/13 15:16:55;;;;;;;;;;;;;;;;;;5054556;28;20428;-71
2023/04/13 15:19:21;;;;;;;;;;;;;;;;;;5054489;28;20051;-69
2023/04/13 15:21:47;;;;;;;;;;;;;;;;;;5054455;28;19986;-68
2023/04/13 15:24:13;;;;;;;;;;;;;;;;;;5055065;28;19963;-70
2023/04/13 15:26:39;;;;;;;;;;;;;;;;;;5054730;28;20006;-69
2023/04/13 15:29:05;;;;;;;;;;;;;;;;;;5054349;28;19972;-71
2023/04/13 15:31:31;;;;;;;;;;;;;;;;;;5054637;28;19956;-68
2023/04/13 15:33:57;;;;;;;;;;;;;;;;;;5054295;28;20479;-68
2023/04/13 15:36:23;;;;;;;;;;;;;;;;;;5054824;28;20006;-71
2023/04/13 15:38:49;;;;;;;;;;;;;;;;;;5054520;28;19959;-68
2023/04/13 15:41:15;;;;;;;;;;;;;;;;;;5054408;28;19976;-71
2023/04/13 15:43:42;;;;;;;;;;;;;;;;;;5054401;28;20372;-71
2023/04/13 15:46:08;;;;;;;;;;;;;;;;;;5054690;28;20006;-70
2023/04/13 15:48:34;;;;;;;;;;;;;;;;;;5054334;28;19986;-67
2023/04/13 15:51:00;;;;;;;;;;;;;;;;;;5054031;28;20332;-70
2023/04/13 15:53:26;;;;;;;;;;;;;;;;;;5054212;28;19956;-67
2023/04/13 15:55:52;;;;;;;;;;;;;;;;;;5053940;28;20067;-69
2023/04/13 15:58:18;;;;;;;;;;;;;;;;;;5053927;28;19956;-69
2023/04/13 16:00:44;;;;;;;;;;;;;;;;;;5054086;28;19976;-68
2023/04/13 16:03:10;;;;;;;;;;;;;;;;;;5053821;28;19991;-68
2023/04/13 16:05:36;;;;;;;;;;;;;;;;;;5054060;28;19999;-70
2023/04/13 16:08:02;;;;;;;;;;;;;;;;;;5054255;28;19956;-68
2023/04/13 16:10:28;;;;;;;;;;;;;;;;;;5053718;28;20050;-70
2023/04/13 16:12:54;;;;;;;;;;;;;;;;;;5053716;28;19999;-70
2023/04/13 16:15:21;;;;;;;;;;;;;;;;;;5054284;28;20325;-71
2023/04/13 16:17:47;;;;;;;;;;;;;;;;;;5053940;28;19983;-68
2023/04/13 16:22:42;;;;;;;;;;;;;;;;;;5053266;28;20489;-69
2023/04/13 16:25:09;;;;;;;;;;;;;;;;;;5053616;28;19995;-70
2023/04/13 16:27:35;;;;;;;;;;;;;;;;;;5053532;28;20447;-71
2023/04/13 16:30:04;;;;;;;;;;;;;;;;;;5053958;28;20324;-67
2023/04/13 16:32:30;;;;;;;;;;;;;;;;;;5053434;28;20375;-71
2023/04/13 16:34:56;;;;;;;;;;;;;;;;;;5052211;28;20382;-69
2023/04/13 16:37:22;;;;;;;;;;;;;;;;;;5054002;28;19955;-70
2023/04/13 16:39:48;;;;;;;;;;;;;;;;;;5053242;28;19983;-68